createdAt,value
2022-08-26T00:00:35.721Z,4.45
2022-08-26T00:03:39.369Z,4.28
2022-08-26T00:06:42.645Z,4.75
2022-08-26T00:09:50.031Z,5.40
2022-08-26T00:12:52.099Z,5.53
2022-08-26T00:15:54.141Z,4.82
2022-08-26T00:18:56.388Z,5.43
2022-08-26T00:21:58.433Z,4.97
2022-08-26T00:25:00.551Z,5.03
2022-08-26T00:28:02.518Z,5.38
2022-08-26T00:31:04.978Z,4.63
2022-08-26T00:34:09.340Z,6.40
2022-08-26T00:37:15.690Z,6.47
2022-08-26T00:43:25.115Z,5.80
2022-08-26T00:46:29.562Z,5.82
2022-08-26T00:49:40.391Z,5.65
2022-08-26T00:52:44.053Z,5.60
2022-08-26T00:55:46.275Z,5.68
2022-08-26T00:58:48.572Z,6.22
2022-08-26T01:01:51.840Z,5.40
2022-08-26T01:04:58.131Z,5.35
2022-08-26T01:07:59.935Z,4.90
2022-08-26T01:11:02.679Z,5.50
2022-08-26T01:14:07.158Z,6.65
2022-08-26T01:17:09.753Z,5.70
2022-08-26T01:20:30.451Z,5.43
2022-08-26T01:23:42.338Z,5.45
2022-08-26T01:26:47.431Z,6.38
2022-08-26T01:29:51.833Z,6.78
2022-08-26T01:32:58.422Z,6.28
2022-08-26T01:36:01.049Z,6.70
2022-08-26T01:39:05.890Z,8.07
2022-08-26T01:42:11.916Z,5.95
2022-08-26T01:45:19.761Z,7.05
2022-08-26T01:48:26.085Z,6.20
2022-08-26T01:51:31.684Z,6.13
2022-08-26T01:54:34.418Z,7.18
2022-08-26T01:57:36.663Z,6.15
2022-08-26T02:00:38.563Z,6.22
2022-08-26T02:04:10.338Z,6.05
2022-08-26T02:07:12.677Z,4.85
2022-08-26T02:10:15.303Z,4.20
2022-08-26T02:13:17.295Z,4.43
2022-08-26T02:16:22.790Z,4.88
2022-08-26T02:19:34.437Z,4.93
2022-08-26T02:22:36.280Z,4.88
2022-08-26T02:25:46.623Z,4.80
2022-08-26T02:29:10.562Z,4.63
2022-08-26T02:32:14.868Z,5.03
2022-08-26T02:35:24.012Z,6.22
2022-08-26T02:38:26.260Z,5.63
2022-08-26T02:41:29.206Z,6.55
2022-08-26T02:44:34.903Z,6.10
2022-08-26T02:47:37.566Z,5.38
2022-08-26T02:50:40.132Z,6.00
2022-08-26T02:53:42.487Z,5.05
2022-08-26T02:56:45.628Z,4.72
2022-08-26T02:59:47.852Z,4.68
2022-08-26T03:02:50.917Z,5.28
2022-08-26T03:05:54.242Z,5.03
2022-08-26T03:08:56.952Z,4.90
2022-08-26T03:12:00.844Z,6.13
2022-08-26T03:15:13.152Z,6.10
2022-08-26T03:18:21.221Z,5.85
2022-08-26T03:21:23.265Z,6.70
2022-08-26T03:24:26.773Z,6.82
2022-08-26T03:27:28.829Z,6.07
2022-08-26T03:30:44.664Z,5.27
2022-08-26T03:33:48.588Z,5.40
2022-08-26T03:36:52.077Z,5.85
2022-08-26T03:39:54.765Z,5.90
2022-08-26T03:42:56.933Z,6.47
2022-08-26T03:45:58.917Z,6.57
2022-08-26T03:49:02.108Z,7.00
2022-08-26T03:52:04.581Z,6.47
2022-08-26T03:55:08.685Z,6.18
2022-08-26T03:58:10.696Z,6.90
2022-08-26T04:01:16.261Z,5.72
2022-08-26T04:04:18.587Z,5.50
2022-08-26T04:07:33.400Z,6.70
2022-08-26T04:10:38.428Z,7.40
2022-08-26T04:13:40.507Z,7.63
2022-08-26T04:16:43.777Z,7.05
2022-08-26T04:19:45.740Z,7.47
2022-08-26T04:22:48.698Z,7.90
2022-08-26T04:25:50.589Z,7.60
2022-08-26T04:28:54.837Z,8.27
2022-08-26T04:31:56.696Z,7.75
2022-08-26T04:34:58.677Z,7.65
2022-08-26T04:38:03.294Z,7.65
2022-08-26T04:41:15.589Z,7.35
2022-08-26T04:44:19.049Z,6.35
2022-08-26T04:47:21.147Z,7.95
2022-08-26T04:50:23.955Z,7.47
2022-08-26T04:53:27.319Z,7.90
2022-08-26T04:56:34.065Z,8.00
2022-08-26T04:59:39.268Z,7.28
2022-08-26T05:02:41.674Z,7.00
2022-08-26T05:05:46.494Z,7.10
2022-08-26T05:08:48.549Z,7.50
2022-08-26T05:11:52.067Z,7.70
2022-08-26T05:14:54.494Z,7.90
2022-08-26T05:17:59.297Z,8.68
2022-08-26T05:21:03.966Z,8.20
2022-08-26T05:24:06.516Z,8.98
2022-08-26T05:27:11.814Z,7.93
2022-08-26T05:30:15.232Z,8.20
2022-08-26T05:33:18.435Z,8.35
2022-08-26T05:36:22.711Z,7.75
2022-08-26T05:39:24.847Z,8.27
2022-08-26T05:42:26.825Z,7.90
2022-08-26T05:45:29.265Z,7.78
2022-08-26T05:48:31.182Z,7.38
2022-08-26T05:51:36.681Z,7.60
2022-08-26T05:54:41.761Z,6.90
2022-08-26T05:57:44.478Z,7.97
2022-08-26T06:00:47.285Z,7.90
2022-08-26T06:03:52.037Z,7.68
2022-08-26T06:06:56.333Z,7.75
2022-08-26T06:10:21.346Z,8.30
2022-08-26T06:13:24.618Z,6.50
2022-08-26T06:16:26.676Z,7.70
2022-08-26T06:19:33.132Z,6.57
2022-08-26T06:22:54.931Z,7.05
2022-08-26T06:25:56.966Z,6.68
2022-08-26T06:28:59.852Z,6.25
2022-08-26T06:32:04.523Z,6.75
2022-08-26T06:35:06.931Z,6.60
2022-08-26T06:38:14.842Z,6.90
2022-08-26T06:41:18.519Z,6.72
2022-08-26T06:44:21.960Z,6.70
2022-08-26T06:47:24.013Z,6.50
2022-08-26T06:50:26.741Z,6.07
2022-08-26T06:53:29.791Z,5.53
2022-08-26T06:56:41.287Z,6.20
2022-08-26T06:59:43.442Z,5.88
2022-08-26T07:02:46.222Z,5.07
2022-08-26T07:05:50.336Z,5.25
2022-08-26T07:09:04.197Z,6.53
2022-08-26T07:12:06.977Z,5.32
2022-08-26T07:15:10.341Z,5.60
2022-08-26T07:18:12.277Z,5.40
2022-08-26T07:21:18.200Z,5.78
2022-08-26T07:24:20.294Z,5.68
2022-08-26T07:27:22.771Z,5.32
2022-08-26T07:30:25.816Z,5.63
2022-08-26T07:33:29.119Z,5.60
2022-08-26T07:36:32.802Z,6.22
2022-08-26T07:39:34.977Z,6.45
2022-08-26T07:42:36.895Z,6.50
2022-08-26T07:45:38.857Z,5.10
2022-08-26T07:48:40.917Z,5.25
2022-08-26T07:51:49.410Z,5.28
2022-08-26T07:54:51.385Z,5.53
2022-08-26T07:57:53.571Z,5.43
2022-08-26T08:00:55.684Z,5.35
2022-08-26T08:04:00.633Z,6.18
2022-08-26T08:07:04.292Z,5.13
2022-08-26T08:10:11.456Z,6.80
2022-08-26T08:13:14.399Z,6.00
2022-08-26T08:16:16.983Z,6.93
2022-08-26T08:19:18.897Z,5.95
2022-08-26T08:22:23.947Z,5.68
2022-08-26T08:25:26.968Z,5.37
2022-08-26T08:28:29.130Z,5.90
2022-08-26T08:31:55.732Z,5.88
2022-08-26T08:34:56.577Z,6.22
2022-08-26T08:37:58.952Z,6.43
2022-08-26T08:41:01.075Z,5.93
2022-08-26T08:44:11.224Z,6.27
2022-08-26T08:47:29.860Z,5.60
2022-08-26T08:50:35.413Z,6.15
2022-08-26T08:53:41.958Z,6.28
2022-08-26T08:56:53.156Z,6.07
2022-08-26T09:00:05.867Z,5.95
2022-08-26T09:03:26.653Z,5.22
2022-08-26T09:06:28.643Z,5.63
2022-08-26T09:09:35.569Z,5.68
2022-08-26T09:12:37.416Z,5.28
2022-08-26T09:15:46.984Z,5.47
2022-08-26T09:18:59.284Z,5.88
2022-08-26T09:22:04.628Z,5.82
2022-08-26T09:25:11.966Z,5.90
2022-08-26T09:28:18.229Z,5.85
2022-08-26T09:31:29.640Z,4.88
2022-08-26T09:34:31.973Z,5.75
2022-08-26T09:37:42.307Z,5.38
2022-08-26T09:40:58.967Z,5.70
2022-08-26T09:44:21.857Z,4.88
2022-08-26T09:47:38.254Z,5.25
2022-08-26T09:50:54.912Z,6.13
2022-08-26T09:54:03.318Z,5.30
2022-08-26T09:57:16.428Z,4.53
2022-08-26T10:00:30.525Z,4.55
2022-08-26T10:03:35.035Z,5.20
2022-08-26T10:06:41.807Z,4.88
2022-08-26T10:09:44.575Z,4.80
2022-08-26T10:13:15.255Z,4.65
2022-08-26T10:16:48.660Z,5.00
2022-08-26T10:20:09.858Z,4.63
2022-08-26T10:23:29.273Z,4.15
2022-08-26T10:26:53.489Z,3.33
2022-08-26T10:30:02.323Z,4.18
2022-08-26T10:33:10.761Z,4.53
2022-08-26T10:36:47.035Z,4.45
2022-08-26T10:40:02.722Z,3.83
2022-08-26T10:43:10.965Z,4.07
2022-08-26T10:46:17.682Z,4.05
2022-08-26T10:49:20.860Z,3.92
2022-08-26T10:52:29.375Z,4.93
2022-08-26T10:55:43.947Z,3.13
2022-08-26T10:59:12.451Z,2.58
2022-08-26T11:02:24.781Z,3.38
2022-08-26T11:05:27.245Z,3.50
2022-08-26T11:08:29.969Z,3.75
2022-08-26T11:11:41.841Z,3.47
2022-08-26T11:14:58.419Z,2.15
2022-08-26T11:18:08.302Z,3.00
2022-08-26T11:21:50.702Z,2.83
2022-08-26T11:24:52.896Z,3.10
2022-08-26T11:28:00.676Z,3.05
2022-08-26T11:31:04.669Z,3.03
2022-08-26T11:34:08.710Z,2.97
2022-08-26T11:37:14.993Z,3.58
2022-08-26T11:40:38.737Z,3.97
2022-08-26T11:43:41.243Z,3.08
2022-08-26T11:47:01.498Z,2.85
2022-08-26T11:50:23.802Z,2.67
2022-08-26T11:53:28.019Z,2.35
2022-08-26T11:56:34.965Z,3.00
2022-08-26T11:59:40.089Z,2.05
2022-08-26T12:02:42.799Z,3.17
2022-08-26T12:05:47.567Z,3.08
2022-08-26T12:08:50.647Z,3.33
2022-08-26T12:11:57.930Z,2.45
2022-08-26T12:15:23.091Z,1.70
2022-08-26T12:18:33.135Z,2.88
2022-08-26T12:21:36.658Z,2.25
2022-08-26T12:24:47.042Z,2.97
2022-08-26T12:27:53.546Z,3.90
2022-08-26T12:31:26.094Z,2.40
2022-08-26T12:34:28.518Z,2.10
2022-08-26T12:37:34.989Z,3.63
2022-08-26T12:40:43.786Z,3.30
2022-08-26T12:43:46.476Z,3.38
2022-08-26T12:46:49.804Z,3.22
2022-08-26T12:50:06.434Z,4.15
2022-08-26T12:53:22.947Z,3.28
2022-08-26T12:56:25.149Z,3.67
2022-08-26T12:59:35.226Z,4.07
2022-08-26T13:02:40.478Z,4.07
2022-08-26T13:05:42.820Z,3.83
2022-08-26T13:08:45.781Z,4.80
2022-08-26T13:11:48.567Z,3.97
2022-08-26T13:14:51.450Z,3.47
2022-08-26T13:17:53.552Z,3.85
2022-08-26T13:21:00.437Z,3.80
2022-08-26T13:24:12.602Z,3.88
2022-08-26T13:27:15.583Z,4.22
2022-08-26T13:30:17.732Z,4.82
2022-08-26T13:33:21.633Z,4.05
2022-08-26T13:36:27.536Z,3.67
2022-08-26T13:42:31.573Z,4.00
2022-08-26T13:45:33.620Z,3.80
2022-08-26T13:48:35.804Z,4.88
2022-08-26T13:51:39.631Z,3.70
2022-08-26T13:54:41.853Z,3.88
2022-08-26T13:57:44.090Z,3.85
2022-08-26T14:00:46.301Z,4.32
2022-08-26T14:03:49.088Z,3.63
2022-08-26T14:06:51.540Z,3.85
2022-08-26T14:09:53.661Z,3.65
2022-08-26T14:12:56.697Z,3.75
2022-08-26T14:16:01.649Z,4.32
2022-08-26T14:19:05.486Z,3.43
2022-08-26T14:22:07.438Z,3.50
2022-08-26T14:25:12.128Z,3.75
2022-08-26T14:28:14.326Z,3.58
2022-08-26T14:31:17.360Z,3.30
2022-08-26T14:34:19.459Z,4.13
2022-08-26T14:37:21.933Z,3.58
2022-08-26T14:40:25.125Z,3.72
2022-08-26T14:43:27.713Z,3.60
2022-08-26T14:46:32.628Z,3.35
2022-08-26T14:49:35.017Z,3.42
2022-08-26T14:52:56.883Z,3.63
2022-08-26T14:55:58.960Z,5.05
2022-08-26T14:59:01.166Z,4.00
2022-08-26T15:02:05.059Z,4.22
2022-08-26T15:05:08.859Z,4.00
2022-08-26T15:08:12.137Z,4.20
2022-08-26T15:11:14.678Z,3.65
2022-08-26T15:14:19.534Z,3.20
2022-08-26T15:17:22.035Z,3.23
2022-08-26T15:20:24.753Z,4.55
2022-08-26T15:23:27.164Z,4.32
2022-08-26T15:26:31.041Z,4.03
2022-08-26T15:29:36.248Z,4.15
2022-08-26T15:32:38.795Z,4.60
2022-08-26T15:35:41.456Z,3.53
2022-08-26T15:38:45.605Z,3.70
2022-08-26T15:41:50.415Z,4.30
2022-08-26T15:44:53.488Z,4.35
2022-08-26T15:48:01.168Z,5.35
2022-08-26T15:51:06.317Z,4.60
2022-08-26T15:54:10.346Z,3.78
2022-08-26T15:57:15.353Z,4.05
2022-08-26T16:00:18.604Z,3.83
2022-08-26T16:03:21.189Z,4.35
2022-08-26T16:06:27.747Z,4.20
2022-08-26T16:09:31.297Z,4.07
2022-08-26T16:12:33.990Z,4.53
2022-08-26T16:15:38.194Z,4.75
2022-08-26T16:18:43.090Z,4.35
2022-08-26T16:21:47.070Z,4.90
2022-08-26T16:24:49.613Z,4.85
2022-08-26T16:27:52.558Z,5.13
2022-08-26T16:30:55.208Z,4.50
2022-08-26T16:33:57.803Z,3.92
2022-08-26T16:37:00.980Z,4.65
2022-08-26T16:40:04.689Z,4.47
2022-08-26T16:43:07.620Z,4.43
2022-08-26T16:46:11.502Z,4.15
2022-08-26T16:49:14.783Z,4.20
2022-08-26T16:52:17.737Z,4.53
2022-08-26T16:55:20.528Z,4.75
2022-08-26T16:58:23.098Z,4.43
2022-08-26T17:01:26.097Z,3.83
2022-08-26T17:04:29.280Z,5.13
2022-08-26T17:07:31.750Z,4.57
2022-08-26T17:10:34.750Z,4.80
2022-08-26T17:13:38.246Z,4.60
2022-08-26T17:16:40.951Z,4.03
2022-08-26T17:19:46.863Z,5.30
2022-08-26T17:25:52.962Z,3.67
2022-08-26T17:28:55.758Z,5.05
2022-08-26T17:31:58.191Z,6.57
2022-08-26T17:35:01.760Z,4.82
2022-08-26T17:38:05.178Z,5.63
2022-08-26T17:41:09.173Z,4.28
2022-08-26T17:44:12.573Z,5.28
2022-08-26T17:47:15.250Z,5.47
2022-08-26T17:50:19.416Z,3.90
2022-08-26T17:53:22.096Z,5.05
2022-08-26T17:56:27.628Z,5.30
2022-08-26T17:59:30.641Z,4.68
2022-08-26T18:02:34.934Z,5.20
2022-08-26T18:05:37.041Z,4.70
2022-08-26T18:08:39.989Z,4.82
2022-08-26T18:11:42.164Z,4.30
2022-08-26T18:14:44.299Z,5.25
2022-08-26T18:17:47.088Z,4.97
2022-08-26T18:20:52.633Z,4.47
2022-08-26T18:24:03.847Z,3.97
2022-08-26T18:27:07.346Z,4.95
2022-08-26T18:30:16.400Z,4.13
2022-08-26T18:33:21.709Z,4.63
2022-08-26T18:36:27.865Z,4.43
2022-08-26T18:39:30.074Z,4.13
2022-08-26T18:42:32.508Z,4.18
2022-08-26T18:45:35.709Z,4.07
2022-08-26T18:48:40.406Z,3.55
2022-08-26T18:51:43.775Z,4.65
2022-08-26T18:54:46.733Z,4.07
2022-08-26T18:57:49.982Z,3.67
2022-08-26T19:00:52.753Z,4.00
2022-08-26T19:03:57.001Z,4.32
2022-08-26T19:07:00.511Z,4.57
2022-08-26T19:10:06.372Z,4.15
2022-08-26T19:13:10.444Z,4.47
2022-08-26T19:16:23.038Z,4.15
2022-08-26T19:19:25.916Z,3.78
2022-08-26T19:22:28.383Z,4.60
2022-08-26T19:25:31.847Z,4.10
2022-08-26T19:28:35.014Z,3.78
2022-08-26T19:31:38.696Z,3.80
2022-08-26T19:34:41.350Z,3.35
2022-08-26T19:37:44.580Z,4.22
2022-08-26T19:40:49.365Z,4.22
2022-08-26T19:43:53.617Z,4.53
2022-08-26T19:47:01.627Z,3.83
2022-08-26T19:50:07.452Z,3.67
2022-08-26T19:53:10.658Z,4.45
2022-08-26T19:56:13.978Z,4.15
2022-08-26T19:59:16.391Z,4.63
2022-08-26T20:02:20.755Z,4.32
2022-08-26T20:05:25.319Z,4.70
2022-08-26T20:08:29.262Z,3.65
2022-08-26T20:11:32.093Z,3.88
2022-08-26T20:14:37.674Z,4.00
2022-08-26T20:17:40.664Z,5.23
2022-08-26T20:21:01.804Z,4.45
2022-08-26T20:24:14.047Z,4.40
2022-08-26T20:27:16.089Z,4.72
2022-08-26T20:30:18.101Z,4.75
2022-08-26T20:33:21.225Z,5.03
2022-08-26T20:36:26.057Z,4.88
2022-08-26T20:39:31.340Z,4.05
2022-08-26T20:42:34.825Z,4.45
2022-08-26T20:45:37.246Z,3.97
2022-08-26T20:48:39.449Z,4.13
2022-08-26T20:51:45.776Z,4.65
2022-08-26T20:54:47.928Z,4.80
2022-08-26T20:57:50.109Z,4.22
2022-08-26T21:00:52.384Z,4.63
2022-08-26T21:03:56.953Z,4.18
2022-08-26T21:06:58.948Z,4.85
2022-08-26T21:10:04.273Z,5.60
2022-08-26T21:13:07.889Z,5.07
2022-08-26T21:16:12.334Z,4.93
2022-08-26T21:19:17.695Z,4.38
2022-08-26T21:22:19.795Z,4.13
2022-08-26T21:25:22.158Z,4.20
2022-08-26T21:28:24.333Z,4.03
2022-08-26T21:31:26.460Z,3.55
2022-08-26T21:34:28.775Z,4.15
2022-08-26T21:37:32.765Z,3.42
2022-08-26T21:40:35.996Z,3.58
2022-08-26T21:43:38.699Z,3.80
2022-08-26T21:46:41.151Z,3.42
2022-08-26T21:49:44.702Z,3.20
2022-08-26T21:52:47.576Z,3.67
2022-08-26T21:55:49.539Z,3.42
2022-08-26T21:58:52.430Z,3.72
2022-08-26T22:01:55.007Z,3.53
2022-08-26T22:04:57.336Z,4.32
2022-08-26T22:07:59.588Z,3.63
2022-08-26T22:11:02.203Z,3.20
2022-08-26T22:14:04.237Z,3.42
2022-08-26T22:17:06.621Z,3.75
2022-08-26T22:20:16.346Z,3.83
2022-08-26T22:23:18.618Z,3.90
2022-08-26T22:26:25.842Z,3.60
2022-08-26T22:29:28.092Z,4.68
2022-08-26T22:32:30.207Z,4.07
2022-08-26T22:35:32.363Z,4.07
2022-08-26T22:38:34.652Z,4.00
2022-08-26T22:41:45.221Z,4.53
2022-08-26T22:44:47.220Z,4.78
2022-08-26T22:47:49.342Z,4.60
2022-08-26T22:50:53.844Z,4.57
2022-08-26T22:53:58.488Z,4.00
2022-08-26T22:57:00.958Z,4.22
2022-08-26T23:00:04.249Z,4.93
2022-08-26T23:03:06.255Z,5.10
2022-08-26T23:06:11.948Z,4.70
2022-08-26T23:09:13.942Z,3.80
2022-08-26T23:12:16.752Z,3.58
2022-08-26T23:15:19.445Z,4.38
2022-08-26T23:18:21.850Z,4.07
2022-08-26T23:21:23.821Z,3.78
2022-08-26T23:24:26.156Z,4.65
2022-08-26T23:27:28.953Z,4.45
2022-08-26T23:30:32.374Z,4.28
2022-08-26T23:33:53.244Z,4.20
2022-08-26T23:36:55.404Z,4.57
2022-08-26T23:39:58.281Z,4.22
2022-08-26T23:43:03.700Z,3.83
2022-08-26T23:46:05.914Z,3.60
2022-08-26T23:49:07.971Z,3.13
2022-08-26T23:52:31.551Z,3.58
2022-08-26T23:55:38.174Z,3.15
